Minneapolis, Minnesota
Traffic Map
Current Weather Conditions
Minneapolis, Minnesota
Few Clouds
Few Clouds
62°
Feels Like: 62°
Wind Chill: 62° Ceiling: Unl
Heat Index: 62° Visibility: 10mi
Dew Point: 27° Wind: 5mph
Humidity: 26% Direction: 260° (W)
Pressure: 29.88in Gusts: 0mph
Raw Report DataKMSP 312353Z 26004KT 10SM FEW100 FEW250 17/M03 A2988 RMK AO2 SLP121 T01671028 10183 20156 56003
Traffic Incident Summary
Active as of:
Severity:
Category:
InformationThere was an issue retrieving the traffic information for this location. Please try a different location or try again shortly.
Advertisements
Track Severe Weather on mobile